createdAt,value
2022-11-18T00:00:27.563Z,97981.28
2022-11-18T00:03:03.257Z,97970.06
2022-11-18T00:05:31.528Z,97979.59
2022-11-18T00:08:04.208Z,97973.69
2022-11-18T00:10:33.493Z,97969.66
2022-11-18T00:13:04.338Z,97967.44
2022-11-18T00:15:41.835Z,97964.53
2022-11-18T00:18:12.364Z,97970.06
2022-11-18T00:20:42.587Z,97965.31
2022-11-18T00:23:20.184Z,97968.63
2022-11-18T00:25:52.074Z,97964.91
2022-11-18T00:28:23.267Z,97964.16
2022-11-18T00:30:53.781Z,97965.84
2022-11-18T00:33:23.191Z,97971.59
2022-11-18T00:35:54.413Z,97969.66
2022-11-18T00:38:34.620Z,97962.63
2022-11-18T00:41:10.266Z,97956.91
2022-11-18T00:43:42.331Z,97958.53
2022-11-18T00:46:14.290Z,97966.09
2022-11-18T00:48:42.875Z,97956.88
2022-11-18T00:51:18.321Z,97953.47
2022-11-18T00:53:48.224Z,97958.94
2022-11-18T00:56:22.133Z,97964.91
2022-11-18T00:58:55.527Z,97957.84
2022-11-18T01:01:24.602Z,97961.56
2022-11-18T01:03:54.647Z,97966.94
2022-11-18T01:06:25.076Z,97966.03
2022-11-18T01:08:58.883Z,97967.69
2022-11-18T01:11:27.971Z,97967.44
2022-11-18T01:14:01.572Z,97972.69
2022-11-18T01:16:30.311Z,97969.91
2022-11-18T01:19:01.096Z,97977.19
2022-11-18T01:21:29.983Z,97971.56
2022-11-18T01:24:06.761Z,97973.44
2022-11-18T01:26:39.085Z,97979.03
2022-11-18T01:29:10.585Z,97983.59
2022-11-18T01:31:55.508Z,97982.00
2022-11-18T01:34:34.842Z,97981.53
2022-11-18T01:37:02.854Z,97985.69
2022-11-18T01:39:35.493Z,97977.69
2022-11-18T01:42:14.973Z,97985.16
2022-11-18T01:45:00.960Z,97982.25
2022-11-18T01:47:41.536Z,97978.03
2022-11-18T01:50:13.007Z,97977.97
2022-11-18T01:52:48.766Z,97983.50
2022-11-18T01:55:48.955Z,97983.94
2022-11-18T01:58:27.262Z,97984.56
2022-11-18T02:00:59.941Z,97996.00
2022-11-18T02:03:32.153Z,97989.22
2022-11-18T02:06:12.156Z,97993.78
2022-11-18T02:08:44.721Z,97999.00
2022-11-18T02:11:16.809Z,98004.50
2022-11-18T02:13:52.551Z,98009.88
2022-11-18T02:16:36.485Z,98011.25
2022-11-18T02:19:30.167Z,98009.38
2022-11-18T02:22:21.479Z,98011.09
2022-11-18T02:25:05.476Z,98017.47
2022-11-18T02:28:15.687Z,98010.91
2022-11-18T02:30:59.114Z,98020.63
2022-11-18T02:33:39.982Z,98022.41
2022-11-18T02:36:23.008Z,98028.59
2022-11-18T02:38:59.372Z,98042.00
2022-11-18T02:41:36.558Z,98039.56
2022-11-18T02:44:15.380Z,98048.81
2022-11-18T02:46:53.483Z,98039.91
2022-11-18T02:49:33.024Z,98049.44
2022-11-18T02:52:04.768Z,98038.91
2022-11-18T02:54:51.002Z,98042.66
2022-11-18T02:57:26.318Z,98056.44
2022-11-18T03:00:04.320Z,98054.16
2022-11-18T03:02:44.511Z,98051.88
2022-11-18T03:05:32.729Z,98049.34
2022-11-18T03:08:22.063Z,98052.09
2022-11-18T03:11:09.514Z,98045.66
2022-11-18T03:13:58.626Z,98027.63
2022-11-18T03:16:45.191Z,98028.47
2022-11-18T03:19:29.799Z,98040.63
2022-11-18T03:22:15.925Z,98036.38
2022-11-18T03:25:05.002Z,98042.34
2022-11-18T03:27:43.088Z,98057.09
2022-11-18T03:30:19.064Z,98049.59
2022-11-18T03:33:02.395Z,98064.09
2022-11-18T03:35:39.888Z,98067.28
2022-11-18T03:38:20.451Z,98070.09
2022-11-18T03:40:57.362Z,98075.34
2022-11-18T03:43:34.047Z,98084.91
2022-11-18T03:46:15.992Z,98097.47
2022-11-18T03:49:02.191Z,98111.34
2022-11-18T03:51:51.151Z,98116.84
2022-11-18T03:54:29.300Z,98110.41
2022-11-18T03:57:09.819Z,98125.81
2022-11-18T03:59:45.882Z,98124.53
2022-11-18T04:02:21.807Z,98128.88
2022-11-18T04:04:54.798Z,98123.13
2022-11-18T04:07:33.144Z,98132.84
2022-11-18T04:10:13.591Z,98143.03
2022-11-18T04:13:03.235Z,98144.31
2022-11-18T04:15:36.722Z,98144.31
2022-11-18T04:18:04.721Z,98137.66
2022-11-18T04:20:41.365Z,98150.09
2022-11-18T04:23:10.489Z,98137.38
2022-11-18T04:25:46.570Z,98137.63
2022-11-18T04:28:16.915Z,98135.28
2022-11-18T04:30:47.048Z,98142.09
2022-11-18T04:33:21.048Z,98141.50
2022-11-18T04:35:48.883Z,98132.03
2022-11-18T04:38:21.905Z,98142.56
2022-11-18T04:40:51.575Z,98154.56
2022-11-18T04:43:20.681Z,98151.66
2022-11-18T04:46:09.014Z,98153.41
2022-11-18T04:48:39.995Z,98150.84
2022-11-18T04:51:07.647Z,98151.31
2022-11-18T04:53:39.335Z,98158.81
2022-11-18T04:56:10.400Z,98159.97
2022-11-18T04:58:43.461Z,98159.03
2022-11-18T05:01:13.207Z,98167.22
2022-11-18T05:03:50.418Z,98172.25
2022-11-18T05:06:27.201Z,98175.53
2022-11-18T05:08:58.478Z,98182.16
2022-11-18T05:11:28.217Z,98171.78
2022-11-18T05:14:12.561Z,98175.03
2022-11-18T05:16:54.538Z,98188.94
2022-11-18T05:19:33.265Z,98188.16
2022-11-18T05:22:03.098Z,98186.16
2022-11-18T05:24:34.215Z,98192.69
2022-11-18T05:27:04.676Z,98194.69
2022-11-18T05:29:31.913Z,98195.94
2022-11-18T05:31:59.575Z,98200.97
2022-11-18T05:34:27.213Z,98207.91
2022-11-18T05:36:55.017Z,98212.81
2022-11-18T05:39:23.165Z,98199.47
2022-11-18T05:42:13.964Z,98203.13
2022-11-18T05:44:56.334Z,98208.34
2022-11-18T05:47:32.868Z,98220.06
2022-11-18T05:50:20.074Z,98225.00
2022-11-18T05:52:57.856Z,98222.63
2022-11-18T05:55:57.135Z,98229.22
2022-11-18T05:58:27.105Z,98233.91
2022-11-18T06:01:04.978Z,98234.84
2022-11-18T06:03:46.845Z,98236.22
2022-11-18T06:06:24.572Z,98236.56
2022-11-18T06:09:07.184Z,98245.50
2022-11-18T06:11:50.959Z,98248.81
2022-11-18T06:14:28.527Z,98259.53
2022-11-18T06:17:17.263Z,98259.34
2022-11-18T06:19:52.185Z,98261.09
2022-11-18T06:22:31.366Z,98270.72
2022-11-18T06:25:05.785Z,98271.19
2022-11-18T06:27:39.580Z,98270.59
2022-11-18T06:30:16.898Z,98274.47
2022-11-18T06:32:53.449Z,98270.94
2022-11-18T06:35:42.799Z,98279.22
2022-11-18T06:38:17.198Z,98283.19
2022-11-18T06:41:05.182Z,98289.16
2022-11-18T06:43:40.623Z,98283.28
2022-11-18T06:46:30.077Z,98302.25
2022-11-18T06:49:01.385Z,98304.97
2022-11-18T06:51:32.099Z,98297.19
2022-11-18T06:54:10.508Z,98300.03
2022-11-18T06:56:45.497Z,98309.28
2022-11-18T06:59:19.608Z,98314.03
2022-11-18T07:01:52.193Z,98318.31
2022-11-18T07:04:23.924Z,98320.56
2022-11-18T07:06:53.942Z,98327.50
2022-11-18T07:09:23.544Z,98330.13
2022-11-18T07:11:53.081Z,98332.03
2022-11-18T07:14:22.421Z,98337.03
2022-11-18T07:16:57.142Z,98339.03
2022-11-18T07:19:24.972Z,98342.19
2022-11-18T07:21:53.044Z,98346.25
2022-11-18T07:24:29.546Z,98349.84
2022-11-18T07:27:07.188Z,98355.38
2022-11-18T07:29:41.072Z,98348.47
2022-11-18T07:32:14.214Z,98359.03
2022-11-18T07:34:44.768Z,98358.66
2022-11-18T07:37:23.619Z,98370.59
2022-11-18T07:39:53.840Z,98372.03
2022-11-18T07:42:27.075Z,98377.78
2022-11-18T07:44:58.764Z,98381.94
2022-11-18T07:47:34.822Z,98381.25
2022-11-18T07:50:25.010Z,98390.06
2022-11-18T07:53:00.096Z,98387.03
2022-11-18T07:55:34.280Z,98403.31
2022-11-18T07:58:05.583Z,98393.34
2022-11-18T08:00:37.505Z,98402.16
2022-11-18T08:03:14.396Z,98406.47
2022-11-18T08:05:49.330Z,98404.66
2022-11-18T08:08:18.131Z,98415.66
2022-11-18T08:11:04.515Z,98404.38
2022-11-18T08:13:41.922Z,98414.41
2022-11-18T08:16:15.405Z,98416.72
2022-11-18T08:18:48.801Z,98425.97
2022-11-18T08:21:25.910Z,98419.03
2022-11-18T08:24:00.699Z,98425.81
2022-11-18T08:26:32.670Z,98419.00
2022-11-18T08:29:10.429Z,98431.97
2022-11-18T08:31:55.120Z,98432.38
2022-11-18T08:34:48.378Z,98437.22
2022-11-18T08:37:18.318Z,98432.44
2022-11-18T08:39:54.691Z,98436.41
2022-11-18T08:42:27.697Z,98434.91
2022-11-18T08:45:00.878Z,98435.84
2022-11-18T08:47:31.619Z,98434.22
2022-11-18T08:50:09.042Z,98445.84
2022-11-18T08:52:43.261Z,98451.94
2022-11-18T08:55:17.367Z,98450.88
2022-11-18T08:57:50.170Z,98450.16
2022-11-18T09:00:24.582Z,98450.66
2022-11-18T09:02:59.062Z,98454.63
2022-11-18T09:05:32.487Z,98454.72
2022-11-18T09:08:06.836Z,98461.31
2022-11-18T09:10:46.561Z,98458.84
2022-11-18T09:16:28.304Z,98458.94
2022-11-18T09:19:31.673Z,98465.50
2022-11-18T09:22:27.188Z,98474.19
2022-11-18T09:25:01.918Z,98472.31
2022-11-18T09:27:51.088Z,98465.88
2022-11-18T09:30:28.216Z,98472.78
2022-11-18T09:33:10.091Z,98479.56
2022-11-18T09:36:08.927Z,98477.56
2022-11-18T09:38:54.749Z,98482.03
2022-11-18T09:41:47.171Z,98484.00
2022-11-18T09:45:01.339Z,98495.25
2022-11-18T09:47:35.534Z,98491.53
2022-11-18T09:50:48.442Z,98490.91
2022-11-18T09:53:21.671Z,98487.16
2022-11-18T09:56:28.526Z,98490.91
2022-11-18T09:59:15.322Z,98491.38
2022-11-18T10:02:41.568Z,98492.06
2022-11-18T10:05:18.746Z,98493.13
2022-11-18T10:08:09.201Z,98498.00
2022-11-18T10:10:55.049Z,98494.94
2022-11-18T10:13:51.605Z,98504.31
2022-11-18T10:16:46.504Z,98499.69
2022-11-18T10:19:32.522Z,98504.81
2022-11-18T10:22:56.484Z,98504.09
2022-11-18T10:26:03.367Z,98512.88
2022-11-18T10:29:25.191Z,98501.84
2022-11-18T10:32:05.666Z,98506.91
2022-11-18T10:35:41.075Z,98508.38
2022-11-18T10:51:45.938Z,98518.66
2022-11-18T10:54:58.345Z,98516.63
2022-11-18T10:57:56.014Z,98523.91
2022-11-18T11:01:00.964Z,98527.81
2022-11-18T11:04:15.538Z,98525.38
2022-11-18T11:16:05.745Z,98526.38
2022-11-18T11:18:45.763Z,98530.81
2022-11-18T11:21:52.634Z,98525.06
2022-11-18T11:24:27.998Z,98532.25
2022-11-18T11:30:18.355Z,98537.31
2022-11-18T11:33:40.029Z,98530.53
2022-11-18T11:37:02.324Z,98540.59
2022-11-18T11:40:06.125Z,98544.69
2022-11-18T11:43:05.751Z,98539.72
2022-11-18T11:45:55.959Z,98548.34
2022-11-18T11:48:49.953Z,98550.31
2022-11-18T11:51:35.122Z,98543.00
2022-11-18T11:54:55.795Z,98550.94
2022-11-18T11:58:17.398Z,98553.91
2022-11-18T12:01:22.198Z,98549.16
2022-11-18T12:04:19.347Z,98554.97
2022-11-18T12:07:08.739Z,98556.28
2022-11-18T12:10:29.111Z,98554.91
2022-11-18T12:14:03.506Z,98546.75
2022-11-18T12:16:50.459Z,98554.69
2022-11-18T12:19:26.685Z,98558.97
2022-11-18T12:22:08.167Z,98560.84
2022-11-18T12:25:33.164Z,98569.13
2022-11-18T12:28:11.600Z,98568.38
2022-11-18T12:30:44.723Z,98568.94
2022-11-18T12:33:21.867Z,98569.00
2022-11-18T12:36:00.955Z,98575.03
2022-11-18T12:38:32.705Z,98582.69
2022-11-18T12:41:00.420Z,98574.81
2022-11-18T12:44:10.882Z,98574.50
2022-11-18T12:46:54.008Z,98574.50
2022-11-18T12:50:20.386Z,98574.81
2022-11-18T12:52:55.581Z,98581.19
2022-11-18T12:55:34.666Z,98580.84
2022-11-18T12:58:26.447Z,98579.19
2022-11-18T13:01:14.662Z,98581.41
2022-11-18T13:03:49.418Z,98578.22
2022-11-18T13:06:31.416Z,98586.22
2022-11-18T13:09:04.930Z,98573.19
2022-11-18T13:11:51.985Z,98583.56
2022-11-18T13:14:30.917Z,98572.22
2022-11-18T13:17:23.108Z,98584.31
2022-11-18T13:19:56.923Z,98589.78
2022-11-18T13:22:29.944Z,98585.69
2022-11-18T13:25:01.034Z,98573.75
2022-11-18T13:27:48.829Z,98572.28
2022-11-18T13:30:22.763Z,98578.72
2022-11-18T13:32:59.963Z,98569.41
2022-11-18T13:35:29.502Z,98570.34
2022-11-18T13:38:02.361Z,98568.22
2022-11-18T13:40:44.967Z,98570.31
2022-11-18T13:43:12.506Z,98567.94
2022-11-18T13:45:45.394Z,98571.44
2022-11-18T13:48:17.067Z,98590.47
2022-11-18T13:50:54.256Z,98594.78
2022-11-18T13:53:55.899Z,98587.16
2022-11-18T13:56:36.064Z,98595.38
2022-11-18T13:59:28.944Z,98590.78
2022-11-18T14:02:02.658Z,98591.72
2022-11-18T14:04:57.220Z,98593.59
2022-11-18T14:07:39.915Z,98593.34
2022-11-18T14:10:29.899Z,98586.56
2022-11-18T14:13:22.566Z,98591.72
2022-11-18T14:16:00.501Z,98592.50
2022-11-18T14:18:35.742Z,98594.19
2022-11-18T14:21:06.036Z,98591.38
2022-11-18T14:23:53.900Z,98603.47
2022-11-18T14:26:34.432Z,98610.28
2022-11-18T14:29:20.280Z,98605.84
2022-11-18T14:32:17.267Z,98608.69
2022-11-18T14:37:42.784Z,98611.94
2022-11-18T14:40:17.428Z,98609.59
2022-11-18T14:42:48.283Z,98619.97
2022-11-18T14:45:17.640Z,98619.50
2022-11-18T14:47:45.733Z,98618.00
2022-11-18T14:50:14.229Z,98622.00
2022-11-18T14:52:42.305Z,98622.91
2022-11-18T14:55:11.723Z,98627.72
2022-11-18T14:57:43.548Z,98629.34
2022-11-18T15:00:20.857Z,98633.69
2022-11-18T15:02:52.055Z,98645.06
2022-11-18T15:05:23.236Z,98643.81
2022-11-18T15:07:53.701Z,98644.06
2022-11-18T15:10:21.949Z,98641.91
2022-11-18T15:12:50.112Z,98643.66
2022-11-18T15:15:19.826Z,98651.63
2022-11-18T15:17:53.773Z,98642.38
2022-11-18T15:20:25.695Z,98647.53
2022-11-18T15:22:54.280Z,98657.81
2022-11-18T15:25:21.944Z,98661.22
2022-11-18T15:27:51.306Z,98653.28
2022-11-18T15:30:25.218Z,98655.72
2022-11-18T15:32:53.104Z,98663.22
2022-11-18T15:35:27.951Z,98660.66
2022-11-18T15:38:06.057Z,98664.75
2022-11-18T15:40:39.284Z,98670.16
2022-11-18T15:43:07.547Z,98671.81
2022-11-18T15:45:38.839Z,98674.38
2022-11-18T15:48:17.473Z,98675.47
2022-11-18T15:50:55.389Z,98680.09
2022-11-18T15:56:30.956Z,98678.28
2022-11-18T15:59:03.757Z,98682.78
2022-11-18T16:01:38.861Z,98687.38
2022-11-18T16:04:10.117Z,98693.53
2022-11-18T16:06:38.111Z,98690.03
2022-11-18T16:09:06.655Z,98689.06
2022-11-18T16:11:33.855Z,98689.78
2022-11-18T16:14:02.097Z,98683.66
2022-11-18T16:16:29.609Z,98691.66
2022-11-18T16:19:01.880Z,98693.22
2022-11-18T16:21:31.712Z,98688.66
2022-11-18T16:24:02.107Z,98704.91
2022-11-18T16:26:30.339Z,98693.78
2022-11-18T16:28:58.380Z,98704.09
2022-11-18T16:31:26.081Z,98702.34
2022-11-18T16:33:53.004Z,98706.47
2022-11-18T16:36:26.925Z,98698.31
2022-11-18T16:38:54.274Z,98701.38
2022-11-18T16:41:21.270Z,98711.56
2022-11-18T16:43:49.091Z,98707.22
2022-11-18T16:46:15.994Z,98704.53
2022-11-18T16:48:43.081Z,98707.69
2022-11-18T16:51:21.876Z,98709.09
2022-11-18T16:53:56.276Z,98713.50
2022-11-18T16:56:25.602Z,98712.97
2022-11-18T16:58:57.996Z,98711.09
2022-11-18T17:01:29.343Z,98708.63
2022-11-18T17:03:59.308Z,98714.19
2022-11-18T17:06:27.058Z,98711.50
2022-11-18T17:08:55.414Z,98708.34
2022-11-18T17:11:22.833Z,98714.91
2022-11-18T17:13:54.798Z,98719.41
2022-11-18T17:16:25.073Z,98721.13
2022-11-18T17:18:55.748Z,98722.25
2022-11-18T17:21:24.409Z,98722.38
2022-11-18T17:23:51.222Z,98724.06
2022-11-18T17:26:23.356Z,98723.22
2022-11-18T17:28:51.034Z,98733.97
2022-11-18T17:31:21.006Z,98742.72
2022-11-18T17:33:49.725Z,98738.19
2022-11-18T17:36:18.704Z,98747.38
2022-11-18T17:38:47.628Z,98749.44
2022-11-18T17:41:20.085Z,98753.41
2022-11-18T17:43:47.330Z,98751.09
2022-11-18T17:46:14.109Z,98747.72
2022-11-18T17:49:00.361Z,98746.31
2022-11-18T17:51:29.962Z,98751.19
2022-11-18T17:53:57.630Z,98749.84
2022-11-18T17:56:25.798Z,98750.81
2022-11-18T17:58:52.853Z,98748.84
2022-11-18T18:01:22.099Z,98759.34
2022-11-18T18:03:49.837Z,98753.50
2022-11-18T18:06:17.384Z,98758.44
2022-11-18T18:08:44.250Z,98760.41
2022-11-18T18:11:14.341Z,98775.22
2022-11-18T18:13:43.674Z,98778.94
2022-11-18T18:16:10.699Z,98776.47
2022-11-18T18:18:37.898Z,98786.47
2022-11-18T18:21:11.479Z,98779.75
2022-11-18T18:23:39.730Z,98780.66
2022-11-18T18:26:09.592Z,98788.94
2022-11-18T18:28:37.552Z,98784.28
2022-11-18T18:31:08.721Z,98785.97
2022-11-18T18:33:37.613Z,98779.97
2022-11-18T18:36:08.261Z,98782.00
2022-11-18T18:38:37.670Z,98787.00
2022-11-18T18:41:08.020Z,98780.72
2022-11-18T18:43:34.944Z,98781.50
2022-11-18T18:46:05.552Z,98781.19
2022-11-18T18:48:34.961Z,98788.97
2022-11-18T18:51:05.572Z,98799.41
2022-11-18T18:53:33.837Z,98790.44
2022-11-18T18:56:00.721Z,98785.19
2022-11-18T18:58:27.625Z,98796.56
2022-11-18T19:00:58.332Z,98794.34
2022-11-18T19:03:26.665Z,98791.78
2022-11-18T19:06:22.293Z,98786.56
2022-11-18T19:08:44.615Z,98795.13
2022-11-18T19:11:12.586Z,98794.56
2022-11-18T19:13:41.484Z,98792.22
2022-11-18T19:16:09.418Z,98795.28
2022-11-18T19:18:37.784Z,98800.00
2022-11-18T19:21:04.710Z,98794.63
2022-11-18T19:23:31.532Z,98798.50
2022-11-18T19:25:59.874Z,98792.88
2022-11-18T19:28:27.197Z,98804.50
2022-11-18T19:30:54.214Z,98806.91
2022-11-18T19:33:21.684Z,98817.03
2022-11-18T19:35:51.372Z,98818.13
2022-11-18T19:38:18.434Z,98821.06
2022-11-18T19:40:45.508Z,98830.63
2022-11-18T19:43:12.644Z,98822.88
2022-11-18T19:45:39.554Z,98828.00
2022-11-18T19:48:06.436Z,98833.31
2022-11-18T19:50:33.337Z,98835.19
2022-11-18T19:53:01.855Z,98830.03
2022-11-18T19:55:28.728Z,98824.81
2022-11-18T19:57:55.921Z,98836.25
2022-11-18T20:00:24.645Z,98832.28
2022-11-18T20:02:51.530Z,98840.31
2022-11-18T20:05:18.671Z,98833.06
2022-11-18T20:07:45.724Z,98843.44
2022-11-18T20:10:14.447Z,98843.72
2022-11-18T20:12:41.450Z,98841.69
2022-11-18T20:15:10.384Z,98836.16
2022-11-18T20:17:37.474Z,98842.56
2022-11-18T20:20:05.718Z,98840.66
2022-11-18T20:22:32.856Z,98839.41
2022-11-18T20:24:59.679Z,98835.88
2022-11-18T20:27:28.399Z,98836.91
2022-11-18T20:29:55.692Z,98849.19
2022-11-18T20:32:22.571Z,98847.66
2022-11-18T20:34:49.454Z,98836.34
2022-11-18T20:37:16.608Z,98839.16
2022-11-18T20:39:43.430Z,98836.16
2022-11-18T20:42:10.698Z,98835.03
2022-11-18T20:44:38.900Z,98828.97
2022-11-18T20:47:06.285Z,98840.13
2022-11-18T20:49:33.192Z,98830.03
2022-11-18T20:52:00.211Z,98833.91
2022-11-18T20:54:27.026Z,98835.34
2022-11-18T20:56:53.855Z,98847.28
2022-11-18T20:59:21.314Z,98846.22
2022-11-18T21:01:49.761Z,98851.63
2022-11-18T21:04:17.178Z,98860.56
2022-11-18T21:06:44.080Z,98867.94
2022-11-18T21:09:14.309Z,98869.47
2022-11-18T21:11:41.087Z,98871.06
2022-11-18T21:14:09.827Z,98865.47
2022-11-18T21:16:36.865Z,98862.47
2022-11-18T21:19:05.313Z,98865.28
2022-11-18T21:21:32.207Z,98867.84
2022-11-18T21:24:01.412Z,98866.47
2022-11-18T21:26:33.826Z,98863.28
2022-11-18T21:29:04.733Z,98868.22
2022-11-18T21:31:34.153Z,98868.06
2022-11-18T21:34:01.568Z,98869.53
2022-11-18T21:36:30.219Z,98868.34
2022-11-18T21:39:00.092Z,98857.97
2022-11-18T21:41:29.564Z,98866.22
2022-11-18T21:44:05.536Z,98860.81
2022-11-18T21:46:38.216Z,98867.72
2022-11-18T21:49:15.271Z,98866.09
2022-11-18T21:51:57.826Z,98874.25
2022-11-18T21:54:27.206Z,98872.94
2022-11-18T21:56:54.058Z,98860.00
2022-11-18T21:59:21.750Z,98876.28
2022-11-18T22:01:48.617Z,98869.00
2022-11-18T22:04:15.717Z,98878.03
2022-11-18T22:06:42.487Z,98881.34
2022-11-18T22:09:10.620Z,98879.25
2022-11-18T22:11:37.683Z,98877.38
2022-11-18T22:14:04.700Z,98879.47
2022-11-18T22:16:31.417Z,98880.81
2022-11-18T22:19:03.583Z,98884.47
2022-11-18T22:21:30.723Z,98879.84
2022-11-18T22:23:59.835Z,98877.81
2022-11-18T22:26:30.978Z,98884.53
2022-11-18T22:28:58.428Z,98888.56
2022-11-18T22:31:28.214Z,98879.94
2022-11-18T22:33:57.582Z,98886.75
2022-11-18T22:36:26.649Z,98890.03
2022-11-18T22:38:54.525Z,98894.16
2022-11-18T22:41:24.358Z,98891.91
2022-11-18T22:43:52.871Z,98889.44
2022-11-18T22:46:19.604Z,98896.22
2022-11-18T22:48:46.582Z,98888.47
2022-11-18T22:51:13.550Z,98892.13
2022-11-18T22:53:40.603Z,98898.22
2022-11-18T22:56:11.211Z,98896.41
2022-11-18T22:58:38.666Z,98902.03
2022-11-18T23:01:10.121Z,98897.44
2022-11-18T23:03:37.214Z,98900.25
2022-11-18T23:06:05.193Z,98901.94
2022-11-18T23:08:35.643Z,98901.72
2022-11-18T23:11:03.575Z,98904.88
2022-11-18T23:13:30.687Z,98910.66
2022-11-18T23:15:58.444Z,98912.97
2022-11-18T23:18:28.109Z,98908.63
2022-11-18T23:21:00.434Z,98911.50
2022-11-18T23:23:27.739Z,98912.75
2022-11-18T23:25:54.978Z,98910.47
2022-11-18T23:28:22.441Z,98904.94
2022-11-18T23:30:49.274Z,98907.44
2022-11-18T23:33:16.163Z,98904.13
2022-11-18T23:35:52.056Z,98902.47
2022-11-18T23:38:18.902Z,98906.59
2022-11-18T23:40:45.874Z,98897.25
2022-11-18T23:43:12.693Z,98901.63
2022-11-18T23:45:41.618Z,98896.44
2022-11-18T23:48:08.570Z,98893.97
2022-11-18T23:50:39.273Z,98899.50
2022-11-18T23:53:07.756Z,98900.56
2022-11-18T23:55:34.585Z,98903.44
2022-11-18T23:58:01.996Z,98901.94
